sensor_id;sensor_type;location;lat;lon;timestamp;P1;durP1;ratioP1;P2;durP2;ratioP2
13432;SDS011;6789;47.678;9.158;2023-07-31T00:04:45;2.00;;;1.75;;
13432;SDS011;6789;47.678;9.158;2023-07-31T00:09:37;2.65;;;1.90;;
13432;SDS011;6789;47.678;9.158;2023-07-31T00:14:29;2.80;;;1.85;;
13432;SDS011;6789;47.678;9.158;2023-07-31T00:19:20;2.45;;;1.58;;
13432;SDS011;6789;47.678;9.158;2023-07-31T00:24:12;4.30;;;1.75;;
13432;SDS011;6789;47.678;9.158;2023-07-31T00:29:04;2.10;;;1.65;;
13432;SDS011;6789;47.678;9.158;2023-07-31T00:33:56;3.95;;;1.85;;
13432;SDS011;6789;47.678;9.158;2023-07-31T00:38:48;3.23;;;2.20;;
13432;SDS011;6789;47.678;9.158;2023-07-31T00:43:40;4.00;;;2.30;;
13432;SDS011;6789;47.678;9.158;2023-07-31T00:48:32;4.63;;;1.77;;
13432;SDS011;6789;47.678;9.158;2023-07-31T00:53:25;5.72;;;2.28;;
13432;SDS011;6789;47.678;9.158;2023-07-31T00:58:18;3.88;;;1.92;;
13432;SDS011;6789;47.678;9.158;2023-07-31T01:03:11;2.78;;;1.58;;
13432;SDS011;6789;47.678;9.158;2023-07-31T01:08:18;2.85;;;1.58;;
13432;SDS011;6789;47.678;9.158;2023-07-31T01:13:32;2.75;;;1.60;;
13432;SDS011;6789;47.678;9.158;2023-07-31T01:18:24;2.53;;;1.67;;
13432;SDS011;6789;47.678;9.158;2023-07-31T01:23:31;5.53;;;1.73;;
13432;SDS011;6789;47.678;9.158;2023-07-31T01:33:58;3.88;;;1.80;;
13432;SDS011;6789;47.678;9.158;2023-07-31T01:38:57;5.25;;;1.60;;
13432;SDS011;6789;47.678;9.158;2023-07-31T01:43:50;2.25;;;1.42;;
13432;SDS011;6789;47.678;9.158;2023-07-31T01:48:42;2.60;;;1.50;;
13432;SDS011;6789;47.678;9.158;2023-07-31T01:53:33;2.22;;;1.55;;
13432;SDS011;6789;47.678;9.158;2023-07-31T01:58:25;2.67;;;1.48;;
13432;SDS011;6789;47.678;9.158;2023-07-31T02:03:17;1.92;;;1.33;;
13432;SDS011;6789;47.678;9.158;2023-07-31T02:08:09;2.55;;;1.65;;
13432;SDS011;6789;47.678;9.158;2023-07-31T02:13:01;3.25;;;1.60;;
13432;SDS011;6789;47.678;9.158;2023-07-31T02:17:54;3.13;;;1.50;;
13432;SDS011;6789;47.678;9.158;2023-07-31T02:22:46;1.52;;;1.40;;
13432;SDS011;6789;47.678;9.158;2023-07-31T02:27:38;2.70;;;1.75;;
13432;SDS011;6789;47.678;9.158;2023-07-31T02:32:30;2.05;;;1.40;;
13432;SDS011;6789;47.678;9.158;2023-07-31T02:37:21;5.03;;;1.60;;
13432;SDS011;6789;47.678;9.158;2023-07-31T02:42:14;3.83;;;1.50;;
13432;SDS011;6789;47.678;9.158;2023-07-31T02:47:06;2.88;;;1.65;;
13432;SDS011;6789;47.678;9.158;2023-07-31T02:51:58;4.63;;;1.58;;
13432;SDS011;6789;47.678;9.158;2023-07-31T02:56:49;5.00;;;1.45;;
13432;SDS011;6789;47.678;9.158;2023-07-31T03:01:41;1.83;;;1.17;;
13432;SDS011;6789;47.678;9.158;2023-07-31T03:06:33;2.80;;;1.70;;
13432;SDS011;6789;47.678;9.158;2023-07-31T03:11:25;2.88;;;1.60;;
13432;SDS011;6789;47.678;9.158;2023-07-31T03:16:16;3.15;;;1.48;;
13432;SDS011;6789;47.678;9.158;2023-07-31T03:21:08;2.28;;;1.55;;
13432;SDS011;6789;47.678;9.158;2023-07-31T03:26:01;2.75;;;1.77;;
13432;SDS011;6789;47.678;9.158;2023-07-31T03:30:56;3.15;;;2.00;;
13432;SDS011;6789;47.678;9.158;2023-07-31T03:35:48;3.97;;;2.10;;
13432;SDS011;6789;47.678;9.158;2023-07-31T03:40:40;2.85;;;1.90;;
13432;SDS011;6789;47.678;9.158;2023-07-31T03:45:32;3.40;;;1.60;;
13432;SDS011;6789;47.678;9.158;2023-07-31T03:50:24;4.75;;;1.83;;
13432;SDS011;6789;47.678;9.158;2023-07-31T03:55:16;3.03;;;1.83;;
13432;SDS011;6789;47.678;9.158;2023-07-31T04:00:09;4.00;;;1.92;;
13432;SDS011;6789;47.678;9.158;2023-07-31T04:05:01;3.40;;;1.70;;
13432;SDS011;6789;47.678;9.158;2023-07-31T04:09:54;5.40;;;1.67;;
13432;SDS011;6789;47.678;9.158;2023-07-31T04:14:45;3.28;;;1.70;;
13432;SDS011;6789;47.678;9.158;2023-07-31T04:19:37;3.15;;;1.50;;
13432;SDS011;6789;47.678;9.158;2023-07-31T04:24:29;3.05;;;1.60;;
13432;SDS011;6789;47.678;9.158;2023-07-31T04:29:21;4.57;;;1.80;;
13432;SDS011;6789;47.678;9.158;2023-07-31T04:34:13;5.25;;;1.77;;
13432;SDS011;6789;47.678;9.158;2023-07-31T04:39:05;6.82;;;1.77;;
13432;SDS011;6789;47.678;9.158;2023-07-31T04:43:57;3.30;;;1.70;;
13432;SDS011;6789;47.678;9.158;2023-07-31T04:48:49;2.50;;;1.77;;
13432;SDS011;6789;47.678;9.158;2023-07-31T04:53:40;4.40;;;1.67;;
13432;SDS011;6789;47.678;9.158;2023-07-31T04:58:33;2.75;;;1.50;;
13432;SDS011;6789;47.678;9.158;2023-07-31T05:03:26;2.88;;;1.60;;
13432;SDS011;6789;47.678;9.158;2023-07-31T05:08:18;4.13;;;1.67;;
13432;SDS011;6789;47.678;9.158;2023-07-31T05:13:10;2.35;;;1.33;;
13432;SDS011;6789;47.678;9.158;2023-07-31T05:18:02;2.65;;;1.40;;
13432;SDS011;6789;47.678;9.158;2023-07-31T05:22:54;3.38;;;1.50;;
13432;SDS011;6789;47.678;9.158;2023-07-31T05:27:46;2.22;;;1.42;;
13432;SDS011;6789;47.678;9.158;2023-07-31T05:32:38;3.92;;;1.70;;
13432;SDS011;6789;47.678;9.158;2023-07-31T05:37:29;4.00;;;1.38;;
13432;SDS011;6789;47.678;9.158;2023-07-31T05:42:21;2.75;;;1.70;;
13432;SDS011;6789;47.678;9.158;2023-07-31T05:47:13;5.00;;;1.88;;
13432;SDS011;6789;47.678;9.158;2023-07-31T05:52:05;2.30;;;1.30;;
13432;SDS011;6789;47.678;9.158;2023-07-31T05:56:59;3.33;;;1.40;;
13432;SDS011;6789;47.678;9.158;2023-07-31T06:01:51;2.45;;;1.30;;
13432;SDS011;6789;47.678;9.158;2023-07-31T06:06:43;2.17;;;1.60;;
13432;SDS011;6789;47.678;9.158;2023-07-31T06:11:34;3.03;;;1.70;;
13432;SDS011;6789;47.678;9.158;2023-07-31T06:16:26;4.60;;;2.13;;
13432;SDS011;6789;47.678;9.158;2023-07-31T06:21:18;3.83;;;1.73;;
13432;SDS011;6789;47.678;9.158;2023-07-31T06:26:10;3.08;;;1.60;;
13432;SDS011;6789;47.678;9.158;2023-07-31T06:31:04;3.35;;;1.50;;
13432;SDS011;6789;47.678;9.158;2023-07-31T06:35:56;4.07;;;1.60;;
13432;SDS011;6789;47.678;9.158;2023-07-31T06:40:49;2.92;;;1.50;;
13432;SDS011;6789;47.678;9.158;2023-07-31T06:45:41;4.22;;;1.50;;
13432;SDS011;6789;47.678;9.158;2023-07-31T06:50:33;3.67;;;1.75;;
13432;SDS011;6789;47.678;9.158;2023-07-31T06:55:25;5.38;;;1.60;;
13432;SDS011;6789;47.678;9.158;2023-07-31T07:00:18;3.15;;;1.35;;
13432;SDS011;6789;47.678;9.158;2023-07-31T07:05:12;3.92;;;1.75;;
13432;SDS011;6789;47.678;9.158;2023-07-31T07:10:04;3.72;;;2.10;;
13432;SDS011;6789;47.678;9.158;2023-07-31T07:14:56;2.38;;;1.98;;
13432;SDS011;6789;47.678;9.158;2023-07-31T07:19:51;3.13;;;1.48;;
13432;SDS011;6789;47.678;9.158;2023-07-31T07:24:43;2.70;;;1.50;;
13432;SDS011;6789;47.678;9.158;2023-07-31T07:29:37;5.68;;;1.55;;
13432;SDS011;6789;47.678;9.158;2023-07-31T07:34:30;2.72;;;1.63;;
13432;SDS011;6789;47.678;9.158;2023-07-31T07:39:22;7.03;;;2.13;;
13432;SDS011;6789;47.678;9.158;2023-07-31T07:44:14;3.08;;;1.55;;
13432;SDS011;6789;47.678;9.158;2023-07-31T07:49:06;2.40;;;1.30;;
13432;SDS011;6789;47.678;9.158;2023-07-31T07:53:59;3.63;;;2.10;;
13432;SDS011;6789;47.678;9.158;2023-07-31T07:58:51;5.20;;;1.65;;
13432;SDS011;6789;47.678;9.158;2023-07-31T08:03:49;2.00;;;1.40;;
13432;SDS011;6789;47.678;9.158;2023-07-31T08:08:41;4.28;;;1.60;;
13432;SDS011;6789;47.678;9.158;2023-07-31T08:13:33;3.75;;;1.77;;
13432;SDS011;6789;47.678;9.158;2023-07-31T08:18:27;3.47;;;2.20;;
13432;SDS011;6789;47.678;9.158;2023-07-31T08:23:19;3.20;;;1.10;;
13432;SDS011;6789;47.678;9.158;2023-07-31T08:28:11;5.25;;;1.85;;
13432;SDS011;6789;47.678;9.158;2023-07-31T08:33:03;3.85;;;1.60;;
13432;SDS011;6789;47.678;9.158;2023-07-31T08:37:55;3.00;;;1.60;;
13432;SDS011;6789;47.678;9.158;2023-07-31T08:42:47;3.38;;;1.48;;
13432;SDS011;6789;47.678;9.158;2023-07-31T08:47:47;2.65;;;1.63;;
13432;SDS011;6789;47.678;9.158;2023-07-31T08:52:42;1.85;;;1.20;;
13432;SDS011;6789;47.678;9.158;2023-07-31T08:57:34;3.33;;;1.85;;
13432;SDS011;6789;47.678;9.158;2023-07-31T09:02:31;5.45;;;1.88;;
13432;SDS011;6789;47.678;9.158;2023-07-31T09:07:36;2.88;;;1.80;;
13432;SDS011;6789;47.678;9.158;2023-07-31T09:12:29;3.35;;;1.42;;
13432;SDS011;6789;47.678;9.158;2023-07-31T09:17:32;5.13;;;1.58;;
13432;SDS011;6789;47.678;9.158;2023-07-31T09:22:32;3.35;;;1.58;;
13432;SDS011;6789;47.678;9.158;2023-07-31T09:27:27;5.43;;;1.88;;
13432;SDS011;6789;47.678;9.158;2023-07-31T09:32:37;3.22;;;1.70;;
13432;SDS011;6789;47.678;9.158;2023-07-31T09:37:29;2.13;;;1.25;;
13432;SDS011;6789;47.678;9.158;2023-07-31T09:42:25;3.00;;;1.70;;
13432;SDS011;6789;47.678;9.158;2023-07-31T09:47:21;4.45;;;2.00;;
13432;SDS011;6789;47.678;9.158;2023-07-31T09:52:17;4.53;;;2.00;;
13432;SDS011;6789;47.678;9.158;2023-07-31T09:57:09;5.97;;;2.17;;
13432;SDS011;6789;47.678;9.158;2023-07-31T10:02:02;3.28;;;1.40;;
13432;SDS011;6789;47.678;9.158;2023-07-31T10:06:55;3.97;;;1.73;;
13432;SDS011;6789;47.678;9.158;2023-07-31T10:11:53;4.32;;;1.70;;
13432;SDS011;6789;47.678;9.158;2023-07-31T10:16:51;2.80;;;1.50;;
13432;SDS011;6789;47.678;9.158;2023-07-31T10:21:54;6.50;;;2.05;;
13432;SDS011;6789;47.678;9.158;2023-07-31T10:26:49;6.75;;;2.03;;
13432;SDS011;6789;47.678;9.158;2023-07-31T10:31:45;4.03;;;1.63;;
13432;SDS011;6789;47.678;9.158;2023-07-31T10:36:39;3.70;;;1.83;;
13432;SDS011;6789;47.678;9.158;2023-07-31T10:41:31;3.55;;;1.85;;
13432;SDS011;6789;47.678;9.158;2023-07-31T10:46:23;3.35;;;1.65;;
13432;SDS011;6789;47.678;9.158;2023-07-31T10:51:16;6.25;;;1.75;;
13432;SDS011;6789;47.678;9.158;2023-07-31T10:56:14;4.93;;;1.88;;
13432;SDS011;6789;47.678;9.158;2023-07-31T11:01:10;5.90;;;2.00;;
13432;SDS011;6789;47.678;9.158;2023-07-31T11:06:05;3.20;;;2.00;;
13432;SDS011;6789;47.678;9.158;2023-07-31T11:15:53;3.00;;;1.83;;
13432;SDS011;6789;47.678;9.158;2023-07-31T11:20:44;3.90;;;1.80;;
13432;SDS011;6789;47.678;9.158;2023-07-31T11:25:37;3.40;;;1.80;;
13432;SDS011;6789;47.678;9.158;2023-07-31T11:30:34;4.57;;;1.80;;
13432;SDS011;6789;47.678;9.158;2023-07-31T11:35:27;3.72;;;1.85;;
13432;SDS011;6789;47.678;9.158;2023-07-31T11:40:18;5.57;;;1.80;;
13432;SDS011;6789;47.678;9.158;2023-07-31T11:45:15;3.35;;;1.80;;
13432;SDS011;6789;47.678;9.158;2023-07-31T11:50:10;2.20;;;1.70;;
13432;SDS011;6789;47.678;9.158;2023-07-31T11:55:03;5.47;;;1.92;;
13432;SDS011;6789;47.678;9.158;2023-07-31T11:59:58;2.45;;;1.48;;
13432;SDS011;6789;47.678;9.158;2023-07-31T12:04:50;3.15;;;1.55;;
13432;SDS011;6789;47.678;9.158;2023-07-31T12:09:55;4.53;;;1.60;;
13432;SDS011;6789;47.678;9.158;2023-07-31T12:14:48;4.43;;;2.08;;
13432;SDS011;6789;47.678;9.158;2023-07-31T12:19:41;1.73;;;1.63;;
13432;SDS011;6789;47.678;9.158;2023-07-31T12:24:34;2.58;;;1.52;;
13432;SDS011;6789;47.678;9.158;2023-07-31T12:29:34;2.90;;;1.75;;
13432;SDS011;6789;47.678;9.158;2023-07-31T12:34:35;2.78;;;1.80;;
13432;SDS011;6789;47.678;9.158;2023-07-31T12:39:34;5.00;;;1.60;;
13432;SDS011;6789;47.678;9.158;2023-07-31T12:44:26;4.45;;;1.63;;
13432;SDS011;6789;47.678;9.158;2023-07-31T12:49:20;2.53;;;1.50;;
13432;SDS011;6789;47.678;9.158;2023-07-31T12:54:12;2.22;;;1.80;;
13432;SDS011;6789;47.678;9.158;2023-07-31T12:59:04;3.53;;;1.63;;
13432;SDS011;6789;47.678;9.158;2023-07-31T13:03:56;4.18;;;2.00;;
13432;SDS011;6789;47.678;9.158;2023-07-31T13:08:48;2.38;;;1.58;;
13432;SDS011;6789;47.678;9.158;2023-07-31T13:13:40;3.50;;;1.80;;
13432;SDS011;6789;47.678;9.158;2023-07-31T13:18:32;2.40;;;1.63;;
13432;SDS011;6789;47.678;9.158;2023-07-31T13:23:23;3.78;;;1.77;;
13432;SDS011;6789;47.678;9.158;2023-07-31T13:28:15;2.58;;;1.50;;
13432;SDS011;6789;47.678;9.158;2023-07-31T13:33:07;3.88;;;1.95;;
13432;SDS011;6789;47.678;9.158;2023-07-31T13:38:15;1.60;;;1.42;;
13432;SDS011;6789;47.678;9.158;2023-07-31T13:43:07;3.85;;;1.85;;
13432;SDS011;6789;47.678;9.158;2023-07-31T13:48:01;4.38;;;1.90;;
13432;SDS011;6789;47.678;9.158;2023-07-31T13:52:54;3.55;;;1.80;;
13432;SDS011;6789;47.678;9.158;2023-07-31T13:57:47;3.50;;;2.20;;
13432;SDS011;6789;47.678;9.158;2023-07-31T14:02:39;2.42;;;1.63;;
13432;SDS011;6789;47.678;9.158;2023-07-31T14:07:31;3.38;;;2.28;;
13432;SDS011;6789;47.678;9.158;2023-07-31T14:12:23;3.65;;;2.05;;
13432;SDS011;6789;47.678;9.158;2023-07-31T14:17:22;3.47;;;2.30;;
13432;SDS011;6789;47.678;9.158;2023-07-31T14:22:14;5.68;;;2.53;;
13432;SDS011;6789;47.678;9.158;2023-07-31T14:27:05;3.78;;;2.08;;
13432;SDS011;6789;47.678;9.158;2023-07-31T14:31:57;3.97;;;2.47;;
13432;SDS011;6789;47.678;9.158;2023-07-31T14:36:50;3.25;;;2.00;;
13432;SDS011;6789;47.678;9.158;2023-07-31T14:41:42;3.05;;;2.42;;
13432;SDS011;6789;47.678;9.158;2023-07-31T14:46:34;4.70;;;2.40;;
13432;SDS011;6789;47.678;9.158;2023-07-31T14:51:26;3.25;;;2.00;;
13432;SDS011;6789;47.678;9.158;2023-07-31T14:56:18;3.38;;;2.38;;
13432;SDS011;6789;47.678;9.158;2023-07-31T15:01:10;3.92;;;2.00;;
13432;SDS011;6789;47.678;9.158;2023-07-31T15:06:01;3.78;;;2.47;;
13432;SDS011;6789;47.678;9.158;2023-07-31T15:10:55;2.35;;;1.92;;
13432;SDS011;6789;47.678;9.158;2023-07-31T15:15:49;3.03;;;2.38;;
13432;SDS011;6789;47.678;9.158;2023-07-31T15:20:42;4.00;;;2.40;;
13432;SDS011;6789;47.678;9.158;2023-07-31T15:25:35;3.83;;;2.30;;
13432;SDS011;6789;47.678;9.158;2023-07-31T15:30:27;3.30;;;2.22;;
13432;SDS011;6789;47.678;9.158;2023-07-31T15:35:20;4.55;;;2.33;;
13432;SDS011;6789;47.678;9.158;2023-07-31T15:40:13;5.25;;;2.67;;
13432;SDS011;6789;47.678;9.158;2023-07-31T15:45:05;3.38;;;2.40;;
13432;SDS011;6789;47.678;9.158;2023-07-31T15:49:59;3.28;;;2.60;;
13432;SDS011;6789;47.678;9.158;2023-07-31T15:54:50;3.25;;;2.38;;
13432;SDS011;6789;47.678;9.158;2023-07-31T15:59:42;3.47;;;2.40;;
13432;SDS011;6789;47.678;9.158;2023-07-31T16:04:34;4.85;;;2.75;;
13432;SDS011;6789;47.678;9.158;2023-07-31T16:09:26;3.55;;;2.35;;
13432;SDS011;6789;47.678;9.158;2023-07-31T16:14:18;4.68;;;2.40;;
13432;SDS011;6789;47.678;9.158;2023-07-31T16:19:10;9.38;;;2.88;;
13432;SDS011;6789;47.678;9.158;2023-07-31T16:24:02;3.92;;;2.67;;
13432;SDS011;6789;47.678;9.158;2023-07-31T16:28:54;3.55;;;2.25;;
13432;SDS011;6789;47.678;9.158;2023-07-31T16:33:46;4.97;;;2.70;;
13432;SDS011;6789;47.678;9.158;2023-07-31T16:38:38;4.53;;;2.33;;
13432;SDS011;6789;47.678;9.158;2023-07-31T16:43:30;4.55;;;2.70;;
13432;SDS011;6789;47.678;9.158;2023-07-31T16:48:22;2.97;;;2.10;;
13432;SDS011;6789;47.678;9.158;2023-07-31T16:53:14;3.05;;;2.22;;
13432;SDS011;6789;47.678;9.158;2023-07-31T16:58:06;4.05;;;2.20;;
13432;SDS011;6789;47.678;9.158;2023-07-31T17:03:06;4.05;;;2.60;;
13432;SDS011;6789;47.678;9.158;2023-07-31T17:07:59;3.70;;;2.33;;
13432;SDS011;6789;47.678;9.158;2023-07-31T17:12:51;3.25;;;2.30;;
13432;SDS011;6789;47.678;9.158;2023-07-31T17:17:43;3.72;;;2.05;;
13432;SDS011;6789;47.678;9.158;2023-07-31T17:22:35;2.55;;;2.17;;
13432;SDS011;6789;47.678;9.158;2023-07-31T17:27:39;5.13;;;2.38;;
13432;SDS011;6789;47.678;9.158;2023-07-31T17:32:31;4.88;;;2.25;;
13432;SDS011;6789;47.678;9.158;2023-07-31T17:37:22;4.55;;;2.30;;
13432;SDS011;6789;47.678;9.158;2023-07-31T17:42:14;4.90;;;2.70;;
13432;SDS011;6789;47.678;9.158;2023-07-31T17:47:06;4.80;;;2.53;;
13432;SDS011;6789;47.678;9.158;2023-07-31T17:52:03;4.03;;;2.13;;
13432;SDS011;6789;47.678;9.158;2023-07-31T17:56:56;2.60;;;2.20;;
13432;SDS011;6789;47.678;9.158;2023-07-31T18:01:48;2.80;;;2.22;;
13432;SDS011;6789;47.678;9.158;2023-07-31T18:06:44;3.75;;;2.38;;
13432;SDS011;6789;47.678;9.158;2023-07-31T18:11:35;3.05;;;2.10;;
13432;SDS011;6789;47.678;9.158;2023-07-31T18:16:27;3.95;;;2.30;;
13432;SDS011;6789;47.678;9.158;2023-07-31T18:21:19;3.38;;;2.28;;
13432;SDS011;6789;47.678;9.158;2023-07-31T18:26:11;5.35;;;2.40;;
13432;SDS011;6789;47.678;9.158;2023-07-31T18:31:03;4.45;;;2.30;;
13432;SDS011;6789;47.678;9.158;2023-07-31T18:35:56;3.55;;;2.47;;
13432;SDS011;6789;47.678;9.158;2023-07-31T18:40:48;3.30;;;2.38;;
13432;SDS011;6789;47.678;9.158;2023-07-31T18:45:40;3.75;;;2.30;;
13432;SDS011;6789;47.678;9.158;2023-07-31T18:50:32;5.95;;;2.50;;
13432;SDS011;6789;47.678;9.158;2023-07-31T18:55:23;3.25;;;2.25;;
13432;SDS011;6789;47.678;9.158;2023-07-31T19:00:16;4.07;;;2.22;;
13432;SDS011;6789;47.678;9.158;2023-07-31T19:05:08;3.28;;;2.35;;
13432;SDS011;6789;47.678;9.158;2023-07-31T19:10:00;4.95;;;2.47;;
13432;SDS011;6789;47.678;9.158;2023-07-31T19:15:06;5.32;;;2.60;;
13432;SDS011;6789;47.678;9.158;2023-07-31T19:20:01;3.78;;;2.10;;
13432;SDS011;6789;47.678;9.158;2023-07-31T19:24:53;6.32;;;2.95;;
13432;SDS011;6789;47.678;9.158;2023-07-31T19:29:45;8.48;;;2.97;;
13432;SDS011;6789;47.678;9.158;2023-07-31T19:34:36;4.18;;;2.58;;
13432;SDS011;6789;47.678;9.158;2023-07-31T19:39:28;5.00;;;2.72;;
13432;SDS011;6789;47.678;9.158;2023-07-31T19:44:21;2.95;;;2.40;;
13432;SDS011;6789;47.678;9.158;2023-07-31T19:49:13;3.53;;;2.53;;
13432;SDS011;6789;47.678;9.158;2023-07-31T19:54:04;3.20;;;2.10;;
13432;SDS011;6789;47.678;9.158;2023-07-31T19:58:56;3.80;;;2.38;;
13432;SDS011;6789;47.678;9.158;2023-07-31T20:03:48;3.95;;;2.70;;
13432;SDS011;6789;47.678;9.158;2023-07-31T20:08:40;4.53;;;2.40;;
13432;SDS011;6789;47.678;9.158;2023-07-31T20:13:32;6.97;;;2.70;;
13432;SDS011;6789;47.678;9.158;2023-07-31T20:18:24;4.70;;;2.15;;
13432;SDS011;6789;47.678;9.158;2023-07-31T20:23:16;8.27;;;2.88;;
13432;SDS011;6789;47.678;9.158;2023-07-31T20:28:27;4.43;;;2.78;;
13432;SDS011;6789;47.678;9.158;2023-07-31T20:33:18;5.85;;;2.60;;
13432;SDS011;6789;47.678;9.158;2023-07-31T20:38:10;4.43;;;2.80;;
13432;SDS011;6789;47.678;9.158;2023-07-31T20:43:02;3.65;;;2.60;;
13432;SDS011;6789;47.678;9.158;2023-07-31T20:47:54;5.68;;;2.75;;
13432;SDS011;6789;47.678;9.158;2023-07-31T20:52:46;4.53;;;2.67;;
13432;SDS011;6789;47.678;9.158;2023-07-31T20:57:41;3.58;;;2.53;;
13432;SDS011;6789;47.678;9.158;2023-07-31T21:02:33;7.32;;;2.97;;
13432;SDS011;6789;47.678;9.158;2023-07-31T21:07:25;7.95;;;4.00;;
13432;SDS011;6789;47.678;9.158;2023-07-31T21:12:17;7.50;;;2.92;;
13432;SDS011;6789;47.678;9.158;2023-07-31T21:17:09;5.78;;;2.85;;
13432;SDS011;6789;47.678;9.158;2023-07-31T21:22:01;6.32;;;2.88;;
13432;SDS011;6789;47.678;9.158;2023-07-31T21:26:53;4.68;;;2.70;;
13432;SDS011;6789;47.678;9.158;2023-07-31T21:31:45;5.40;;;2.63;;
13432;SDS011;6789;47.678;9.158;2023-07-31T21:36:37;3.97;;;2.88;;
13432;SDS011;6789;47.678;9.158;2023-07-31T21:41:30;5.40;;;2.90;;
13432;SDS011;6789;47.678;9.158;2023-07-31T21:46:22;3.47;;;2.33;;
13432;SDS011;6789;47.678;9.158;2023-07-31T21:51:14;3.60;;;2.47;;
13432;SDS011;6789;47.678;9.158;2023-07-31T21:56:06;4.15;;;2.70;;
13432;SDS011;6789;47.678;9.158;2023-07-31T22:00:57;4.70;;;2.85;;
13432;SDS011;6789;47.678;9.158;2023-07-31T22:05:50;4.18;;;2.88;;
13432;SDS011;6789;47.678;9.158;2023-07-31T22:10:42;5.43;;;3.33;;
13432;SDS011;6789;47.678;9.158;2023-07-31T22:15:33;4.20;;;2.70;;
13432;SDS011;6789;47.678;9.158;2023-07-31T22:20:25;5.65;;;3.00;;
13432;SDS011;6789;47.678;9.158;2023-07-31T22:25:17;6.07;;;2.97;;
13432;SDS011;6789;47.678;9.158;2023-07-31T22:30:09;7.20;;;2.97;;
13432;SDS011;6789;47.678;9.158;2023-07-31T22:35:02;6.15;;;2.92;;
13432;SDS011;6789;47.678;9.158;2023-07-31T22:39:55;4.90;;;2.90;;
13432;SDS011;6789;47.678;9.158;2023-07-31T22:44:46;4.70;;;2.90;;
13432;SDS011;6789;47.678;9.158;2023-07-31T22:49:52;5.88;;;2.97;;
13432;SDS011;6789;47.678;9.158;2023-07-31T22:54:44;4.05;;;2.60;;
13432;SDS011;6789;47.678;9.158;2023-07-31T22:59:37;4.35;;;2.80;;
13432;SDS011;6789;47.678;9.158;2023-07-31T23:04:29;6.22;;;3.20;;
13432;SDS011;6789;47.678;9.158;2023-07-31T23:09:23;7.25;;;2.67;;
13432;SDS011;6789;47.678;9.158;2023-07-31T23:14:14;7.70;;;3.00;;
13432;SDS011;6789;47.678;9.158;2023-07-31T23:19:06;4.95;;;3.10;;
13432;SDS011;6789;47.678;9.158;2023-07-31T23:23:58;6.07;;;3.72;;
13432;SDS011;6789;47.678;9.158;2023-07-31T23:28:51;7.25;;;3.58;;
13432;SDS011;6789;47.678;9.158;2023-07-31T23:33:43;6.18;;;3.80;;
13432;SDS011;6789;47.678;9.158;2023-07-31T23:38:35;7.93;;;3.95;;
13432;SDS011;6789;47.678;9.158;2023-07-31T23:43:26;8.27;;;4.15;;
13432;SDS011;6789;47.678;9.158;2023-07-31T23:48:18;5.82;;;3.67;;
13432;SDS011;6789;47.678;9.158;2023-07-31T23:53:10;6.05;;;3.97;;
13432;SDS011;6789;47.678;9.158;2023-07-31T23:58:02;7.35;;;3.78;;
